Terminal Aerodrome Forecast
Issued by NWS

Home | Current Version | Previous Version | Graphics & Text | Print | Product List | Glossary On
Versions: 1 2 3 4 5 6 7 8 9 10 11 12 13 14 15 16 17 18 19
000
FTUS43 KMPX 150500
TAFRNH
TAF
KRNH 150540Z 1506/1606 17007KT 1/4SM FG VV001
     FM151900 36008KT 3/4SM RA BR OVC002
      TEMPO 1602/1604 -RAPLSN
     FM160400 35018G25KT 3/4SM -SN BR OVC005=

USA.gov is the U.S. government's official web portal to all federal, state and local government web resources and services.